createdAt,value
2023-03-06T00:02:19.874Z,15.25
2023-03-06T00:04:47.154Z,15.50
2023-03-06T00:07:13.905Z,14.75
2023-03-06T00:09:40.568Z,15.00
2023-03-06T00:12:07.520Z,14.32
2023-03-06T00:14:34.114Z,15.45
2023-03-06T00:17:00.754Z,13.70
2023-03-06T00:19:27.696Z,15.43
2023-03-06T00:21:54.866Z,14.77
2023-03-06T00:24:21.565Z,15.07
2023-03-06T00:26:48.141Z,15.48
2023-03-06T00:29:14.865Z,15.73
2023-03-06T00:31:44.804Z,15.80
2023-03-06T00:34:11.591Z,15.85
2023-03-06T00:36:38.220Z,15.55
2023-03-06T00:39:05.155Z,16.65
2023-03-06T00:41:31.674Z,14.77
2023-03-06T00:43:58.231Z,15.55
2023-03-06T00:46:24.819Z,15.38
2023-03-06T00:48:51.316Z,15.23
2023-03-06T00:51:19.762Z,15.57
2023-03-06T00:53:46.374Z,17.85
2023-03-06T00:56:13.007Z,16.60
2023-03-06T00:58:39.659Z,16.65
2023-03-06T01:01:06.297Z,15.48
2023-03-06T01:03:32.910Z,16.52
2023-03-06T01:05:59.504Z,15.35
2023-03-06T01:08:26.252Z,16.25
2023-03-06T01:10:52.790Z,16.10
2023-03-06T01:13:19.476Z,15.98
2023-03-06T01:15:46.104Z,15.48
2023-03-06T01:18:12.717Z,15.32
2023-03-06T01:20:39.298Z,15.70
2023-03-06T01:23:05.969Z,15.45
2023-03-06T01:25:32.563Z,13.82
2023-03-06T01:27:59.144Z,14.40
2023-03-06T01:30:25.748Z,15.35
2023-03-06T01:32:52.274Z,15.07
2023-03-06T01:35:18.942Z,13.93
2023-03-06T01:37:45.716Z,15.02
2023-03-06T01:40:13.039Z,13.65
2023-03-06T01:42:39.899Z,13.15
2023-03-06T01:45:28.606Z,13.30
2023-03-06T01:47:55.296Z,13.55
2023-03-06T01:50:22.082Z,13.65
2023-03-06T01:52:52.940Z,13.30
2023-03-06T01:55:27.753Z,13.65
2023-03-06T01:57:57.917Z,14.15
2023-03-06T02:03:19.234Z,12.60
2023-03-06T02:05:46.427Z,14.18
2023-03-06T02:08:16.334Z,13.30
2023-03-06T02:11:14.391Z,13.23
2023-03-06T02:13:42.222Z,13.27
2023-03-06T02:16:09.888Z,13.13
2023-03-06T02:18:37.881Z,13.38
2023-03-06T02:21:08.310Z,13.48
2023-03-06T02:23:56.036Z,13.60
2023-03-06T02:26:23.723Z,12.75
2023-03-06T02:28:50.226Z,13.02
2023-03-06T02:31:24.099Z,13.88
2023-03-06T02:34:15.715Z,13.77
2023-03-06T02:36:47.460Z,12.05
2023-03-06T02:39:15.635Z,13.40
2023-03-06T02:41:42.162Z,12.57
2023-03-06T02:44:08.791Z,13.23
2023-03-06T02:46:35.533Z,13.35
2023-03-06T02:49:02.294Z,13.55
2023-03-06T02:51:28.932Z,12.82
2023-03-06T02:53:55.427Z,12.77
2023-03-06T02:56:22.534Z,12.65
2023-03-06T02:58:49.144Z,12.82
2023-03-06T03:01:16.007Z,13.10
2023-03-06T03:03:42.767Z,12.73
2023-03-06T03:06:09.515Z,12.93
2023-03-06T03:08:36.588Z,11.57
2023-03-06T03:11:03.365Z,13.63
2023-03-06T03:13:30.102Z,12.90
2023-03-06T03:16:06.214Z,12.77
2023-03-06T03:18:33.635Z,11.35
2023-03-06T03:21:00.273Z,12.30
2023-03-06T03:23:27.293Z,13.02
2023-03-06T03:25:53.945Z,12.98
2023-03-06T03:28:20.507Z,12.48
2023-03-06T03:30:47.249Z,12.60
2023-03-06T03:33:13.911Z,11.93
2023-03-06T03:35:40.489Z,11.82
2023-03-06T03:38:07.104Z,11.88
2023-03-06T03:40:33.749Z,11.43
2023-03-06T03:43:00.269Z,11.18
2023-03-06T03:45:26.941Z,11.38
2023-03-06T03:47:53.576Z,11.48
2023-03-06T03:50:20.292Z,12.65
2023-03-06T03:52:47.061Z,10.82
2023-03-06T03:55:13.820Z,11.98
2023-03-06T03:57:40.358Z,11.57
2023-03-06T04:00:08.136Z,11.35
2023-03-06T04:02:34.748Z,11.23
2023-03-06T04:05:01.420Z,11.98
2023-03-06T04:07:28.019Z,12.45
2023-03-06T04:09:54.672Z,11.18
2023-03-06T04:12:21.201Z,11.05
2023-03-06T04:14:47.806Z,10.98
2023-03-06T04:17:14.425Z,12.07
2023-03-06T04:19:40.929Z,11.32
2023-03-06T04:22:07.571Z,11.90
2023-03-06T04:24:34.209Z,10.73
2023-03-06T04:27:00.916Z,11.98
2023-03-06T04:29:27.477Z,11.80
2023-03-06T04:31:54.107Z,11.05
2023-03-06T04:34:20.644Z,11.40
2023-03-06T04:36:47.308Z,11.23
2023-03-06T04:39:14.531Z,11.55
2023-03-06T04:41:42.086Z,11.25
2023-03-06T04:44:09.055Z,10.70
2023-03-06T04:46:36.293Z,11.27
2023-03-06T04:49:02.923Z,11.77
2023-03-06T04:51:29.688Z,12.73
2023-03-06T04:53:56.401Z,11.27
2023-03-06T04:56:23.328Z,11.43
2023-03-06T04:58:50.035Z,10.40
2023-03-06T05:01:16.752Z,12.15
2023-03-06T05:03:43.311Z,11.48
2023-03-06T05:06:10.330Z,10.52
2023-03-06T05:08:37.086Z,11.18
2023-03-06T05:11:03.701Z,10.20
2023-03-06T05:13:30.333Z,11.18
2023-03-06T05:16:02.576Z,10.95
2023-03-06T05:18:29.101Z,10.52
2023-03-06T05:20:59.488Z,11.07
2023-03-06T05:23:27.619Z,11.23
2023-03-06T05:25:54.236Z,10.63
2023-03-06T05:28:21.395Z,11.20
2023-03-06T05:30:48.154Z,10.77
2023-03-06T05:33:15.106Z,9.35
2023-03-06T05:35:47.225Z,10.05
2023-03-06T05:38:15.409Z,11.48
2023-03-06T05:40:43.953Z,10.45
2023-03-06T05:43:11.938Z,10.18
2023-03-06T05:45:39.450Z,9.65
2023-03-06T05:48:06.438Z,10.93
2023-03-06T05:50:33.206Z,10.18
2023-03-06T05:52:59.996Z,10.98
2023-03-06T05:55:26.614Z,10.73
2023-03-06T05:57:54.004Z,10.35
2023-03-06T06:00:21.369Z,10.48
2023-03-06T06:02:47.989Z,10.50
2023-03-06T06:05:14.717Z,10.38
2023-03-06T06:07:41.805Z,10.18
2023-03-06T06:10:09.052Z,10.77
2023-03-06T06:12:35.556Z,10.85
2023-03-06T06:15:02.218Z,10.35
2023-03-06T06:17:28.851Z,10.15
2023-03-06T06:19:55.377Z,9.98
2023-03-06T06:22:21.949Z,11.15
2023-03-06T06:24:48.490Z,10.60
2023-03-06T06:27:15.036Z,11.20
2023-03-06T06:29:41.668Z,11.15
2023-03-06T06:32:08.308Z,10.15
2023-03-06T06:34:34.900Z,11.15
2023-03-06T06:37:01.577Z,10.57
2023-03-06T06:39:29.037Z,11.48
2023-03-06T06:42:09.978Z,10.50
2023-03-06T06:44:42.284Z,10.77
2023-03-06T06:47:22.302Z,10.65
2023-03-06T06:49:53.557Z,10.13
2023-03-06T06:52:20.517Z,10.65
2023-03-06T06:54:47.233Z,10.05
2023-03-06T06:57:13.969Z,10.63
2023-03-06T06:59:40.508Z,10.05
2023-03-06T07:02:07.257Z,10.55
2023-03-06T07:04:33.982Z,11.57
2023-03-06T07:07:01.189Z,13.63
2023-03-06T07:09:28.092Z,11.82
2023-03-06T07:11:54.770Z,12.30
2023-03-06T07:14:21.280Z,10.95
2023-03-06T07:16:47.785Z,10.48
2023-03-06T07:19:14.448Z,9.60
2023-03-06T07:21:41.249Z,10.52
2023-03-06T07:24:07.972Z,12.02
2023-03-06T07:26:35.063Z,9.75
2023-03-06T07:29:02.607Z,10.80
2023-03-06T07:31:29.256Z,11.48
2023-03-06T07:33:56.643Z,11.63
2023-03-06T07:36:24.060Z,11.13
2023-03-06T07:38:50.700Z,11.27
2023-03-06T07:41:21.841Z,10.50
2023-03-06T07:43:49.416Z,10.23
2023-03-06T07:46:16.003Z,10.10
2023-03-06T07:48:43.036Z,10.38
2023-03-06T07:51:15.574Z,9.27
2023-03-06T07:53:42.517Z,9.45
2023-03-06T07:56:09.472Z,10.40
2023-03-06T07:58:41.589Z,11.35
2023-03-06T08:01:11.449Z,9.88
2023-03-06T08:03:38.231Z,10.80
2023-03-06T08:06:15.834Z,10.95
2023-03-06T08:11:11.837Z,9.40
2023-03-06T08:13:39.122Z,10.30
2023-03-06T08:16:06.568Z,10.27
2023-03-06T08:18:33.516Z,10.43
2023-03-06T08:21:08.414Z,10.60
2023-03-06T08:23:35.463Z,10.48
2023-03-06T08:26:05.556Z,9.30
2023-03-06T08:28:32.455Z,9.85
2023-03-06T08:30:59.195Z,9.98
2023-03-06T08:33:25.718Z,10.10
2023-03-06T08:35:52.939Z,9.85
2023-03-06T08:38:19.544Z,9.50
2023-03-06T08:40:46.111Z,9.90
2023-03-06T08:43:14.234Z,9.93
2023-03-06T08:45:41.066Z,11.60
2023-03-06T08:48:07.663Z,10.32
2023-03-06T08:50:34.491Z,10.30
2023-03-06T08:53:01.055Z,10.07
2023-03-06T08:55:28.268Z,9.95
2023-03-06T08:57:55.064Z,9.52
2023-03-06T09:00:21.730Z,9.68
2023-03-06T09:02:48.239Z,9.93
2023-03-06T09:05:15.028Z,9.75
2023-03-06T09:07:41.537Z,9.10
2023-03-06T09:10:12.742Z,9.18
2023-03-06T09:15:18.121Z,8.43
2023-03-06T09:17:44.936Z,9.70
2023-03-06T09:20:12.300Z,9.00
2023-03-06T09:22:39.199Z,9.20
2023-03-06T09:25:06.672Z,9.77
2023-03-06T09:27:33.249Z,9.25
2023-03-06T09:29:59.772Z,9.57
2023-03-06T09:32:26.685Z,9.68
2023-03-06T09:34:53.190Z,9.52
2023-03-06T09:37:19.753Z,9.82
2023-03-06T09:39:46.402Z,9.63
2023-03-06T09:42:19.334Z,9.82
2023-03-06T09:44:56.872Z,9.50
2023-03-06T09:47:44.847Z,8.30
2023-03-06T09:50:42.355Z,9.05
2023-03-06T09:53:47.554Z,8.45
2023-03-06T09:56:31.191Z,8.10
2023-03-06T10:02:00.495Z,8.00
2023-03-06T10:04:41.569Z,8.48
2023-03-06T10:07:15.728Z,8.60
2023-03-06T10:09:48.160Z,9.20
2023-03-06T10:12:25.935Z,9.00
2023-03-06T10:15:01.988Z,9.10
2023-03-06T10:17:35.581Z,9.57
2023-03-06T10:20:11.140Z,8.95
2023-03-06T10:23:01.009Z,9.75
2023-03-06T10:25:37.998Z,9.73
2023-03-06T10:28:22.091Z,9.90
2023-03-06T10:30:58.742Z,9.10
2023-03-06T10:33:47.242Z,9.95
2023-03-06T10:36:19.976Z,10.45
2023-03-06T10:38:50.158Z,10.65
2023-03-06T10:41:23.900Z,12.35
2023-03-06T10:44:05.747Z,11.75
2023-03-06T10:46:37.741Z,11.63
2023-03-06T10:49:19.791Z,12.00
2023-03-06T10:52:03.340Z,11.27
2023-03-06T10:56:58.180Z,11.15
2023-03-06T10:59:28.441Z,11.60
2023-03-06T11:02:19.678Z,10.75
2023-03-06T11:04:51.364Z,11.35
2023-03-06T11:07:23.030Z,13.02
2023-03-06T11:09:58.731Z,12.45
2023-03-06T11:12:28.670Z,12.30
2023-03-06T11:15:10.182Z,12.13
2023-03-06T11:17:52.024Z,11.07
2023-03-06T11:20:38.424Z,11.35
2023-03-06T11:23:18.414Z,11.88
2023-03-06T11:25:48.888Z,12.63
2023-03-06T11:28:23.848Z,10.40
2023-03-06T11:30:56.337Z,11.40
2023-03-06T11:33:34.193Z,11.77
2023-03-06T11:36:26.064Z,11.20
2023-03-06T11:38:54.200Z,10.48
2023-03-06T11:41:43.837Z,11.63
2023-03-06T11:44:35.215Z,10.95
2023-03-06T11:47:25.970Z,10.75
2023-03-06T11:50:10.276Z,11.68
2023-03-06T11:52:47.582Z,12.05
2023-03-06T11:55:20.901Z,11.05
2023-03-06T11:57:57.089Z,11.00
2023-03-06T12:00:46.073Z,11.48
2023-03-06T12:03:54.731Z,10.63
2023-03-06T12:06:53.372Z,11.00
2023-03-06T12:09:37.728Z,9.88
2023-03-06T12:12:20.604Z,9.45
2023-03-06T12:15:24.056Z,9.75
2023-03-06T12:18:05.621Z,9.00
2023-03-06T12:20:55.360Z,8.93
2023-03-06T12:26:23.029Z,8.32
2023-03-06T12:28:51.547Z,9.02
2023-03-06T12:31:31.260Z,9.75
2023-03-06T12:34:16.917Z,9.48
2023-03-06T12:37:09.656Z,9.07
2023-03-06T12:39:58.157Z,9.65
2023-03-06T12:43:12.135Z,8.25
2023-03-06T12:45:39.231Z,8.70
2023-03-06T12:48:18.124Z,9.85
2023-03-06T12:50:45.658Z,9.07
2023-03-06T12:53:34.020Z,8.90
2023-03-06T12:56:02.806Z,9.15
2023-03-06T12:58:29.532Z,9.60
2023-03-06T13:01:27.226Z,9.30
2023-03-06T13:04:07.335Z,7.82
2023-03-06T13:07:04.440Z,7.00
2023-03-06T13:09:33.576Z,8.43
2023-03-06T13:12:24.925Z,8.10
2023-03-06T13:15:18.901Z,7.95
2023-03-06T13:17:45.905Z,8.02
2023-03-06T13:20:15.277Z,7.82
2023-03-06T13:22:46.992Z,7.72
2023-03-06T13:25:16.806Z,6.35
2023-03-06T13:27:52.982Z,8.30
2023-03-06T13:30:28.453Z,8.38
2023-03-06T13:32:56.385Z,8.55
2023-03-06T13:35:52.754Z,8.23
2023-03-06T13:38:41.134Z,8.60
2023-03-06T13:41:22.810Z,7.68
2023-03-06T13:43:55.328Z,7.53
2023-03-06T13:46:26.902Z,7.20
2023-03-06T13:49:08.670Z,7.40
2023-03-06T13:51:36.352Z,6.88
2023-03-06T13:54:09.191Z,7.68
2023-03-06T13:56:57.561Z,7.50
2023-03-06T13:59:42.480Z,7.38
2023-03-06T14:02:43.800Z,5.80
2023-03-06T14:05:12.603Z,6.65
2023-03-06T14:07:44.103Z,7.05
2023-03-06T14:10:13.318Z,7.43
2023-03-06T14:12:48.723Z,8.02
2023-03-06T14:15:20.935Z,7.38
2023-03-06T14:18:01.657Z,7.65
2023-03-06T14:20:42.353Z,7.95
2023-03-06T14:23:30.516Z,7.57
2023-03-06T14:26:18.749Z,6.68
2023-03-06T14:28:53.559Z,6.85
2023-03-06T14:31:22.892Z,7.90
2023-03-06T14:33:56.597Z,6.80
2023-03-06T14:36:31.694Z,7.40
2023-03-06T14:39:04.311Z,6.78
2023-03-06T14:41:34.455Z,7.60
2023-03-06T14:44:26.515Z,6.28
2023-03-06T14:46:55.274Z,6.53
2023-03-06T14:49:24.556Z,7.15
2023-03-06T14:51:53.669Z,6.72
2023-03-06T14:54:24.821Z,7.18
2023-03-06T14:57:01.584Z,6.88
2023-03-06T14:59:30.952Z,7.25
2023-03-06T15:02:01.043Z,7.32
2023-03-06T15:04:45.103Z,7.18
2023-03-06T15:07:16.102Z,6.57
2023-03-06T15:09:47.618Z,7.07
2023-03-06T15:12:20.329Z,7.85
2023-03-06T15:14:58.898Z,7.65
2023-03-06T15:17:32.033Z,8.15
2023-03-06T15:20:00.388Z,7.72
2023-03-06T15:22:42.493Z,8.00
2023-03-06T15:25:30.247Z,8.27
2023-03-06T15:28:20.279Z,7.80
2023-03-06T15:31:03.396Z,7.93
2023-03-06T15:33:30.294Z,7.05
2023-03-06T15:36:02.024Z,7.28
2023-03-06T15:38:44.021Z,8.15
2023-03-06T15:41:41.820Z,6.85
2023-03-06T15:44:18.503Z,7.57
2023-03-06T15:46:45.133Z,9.02
2023-03-06T15:49:17.182Z,8.55
2023-03-06T15:51:43.974Z,8.77
2023-03-06T15:54:12.513Z,9.02
2023-03-06T15:56:41.986Z,8.32
2023-03-06T15:59:26.329Z,8.80
2023-03-06T16:01:54.025Z,8.75
2023-03-06T16:04:20.658Z,9.00
2023-03-06T16:06:47.341Z,8.73
2023-03-06T16:09:14.499Z,9.57
2023-03-06T16:11:44.849Z,8.52
2023-03-06T16:14:18.941Z,9.05
2023-03-06T16:16:45.742Z,8.57
2023-03-06T16:19:25.888Z,9.15
2023-03-06T16:21:53.404Z,8.98
2023-03-06T16:24:20.042Z,8.70
2023-03-06T16:26:51.153Z,8.95
2023-03-06T16:29:20.512Z,10.85
2023-03-06T16:31:47.587Z,9.10
2023-03-06T16:34:14.608Z,8.55
2023-03-06T16:36:41.774Z,9.23
2023-03-06T16:39:14.718Z,8.27
2023-03-06T16:41:41.325Z,8.02
2023-03-06T16:44:10.234Z,7.13
2023-03-06T16:46:42.624Z,6.10
2023-03-06T16:49:16.275Z,7.47
2023-03-06T16:51:43.179Z,7.07
2023-03-06T16:54:09.717Z,7.30
2023-03-06T16:56:36.370Z,7.18
2023-03-06T16:59:02.962Z,7.03
2023-03-06T17:01:29.512Z,7.63
2023-03-06T17:03:56.243Z,7.00
2023-03-06T17:06:23.394Z,7.25
2023-03-06T17:08:50.535Z,7.10
2023-03-06T17:11:20.332Z,6.40
2023-03-06T17:13:47.669Z,7.10
2023-03-06T17:16:16.526Z,7.60
2023-03-06T17:18:45.185Z,7.45
2023-03-06T17:21:15.620Z,6.90
2023-03-06T17:23:42.495Z,6.55
2023-03-06T17:26:13.240Z,6.63
2023-03-06T17:28:40.269Z,6.00
2023-03-06T17:31:21.350Z,6.85
2023-03-06T17:33:48.665Z,6.90
2023-03-06T17:36:17.294Z,7.03
2023-03-06T17:38:43.890Z,7.20
2023-03-06T17:41:12.284Z,6.75
2023-03-06T17:43:39.409Z,6.63
2023-03-06T17:46:08.110Z,6.65
2023-03-06T17:48:35.961Z,6.85
2023-03-06T17:51:03.431Z,7.15
2023-03-06T17:53:30.092Z,6.90
2023-03-06T17:55:59.664Z,6.60
2023-03-06T17:58:27.551Z,6.43
2023-03-06T18:00:54.393Z,6.63
2023-03-06T18:03:21.224Z,6.32
2023-03-06T18:05:48.031Z,7.28
2023-03-06T18:08:14.690Z,6.32
2023-03-06T18:10:43.435Z,7.10
2023-03-06T18:13:10.487Z,6.95
2023-03-06T18:15:40.931Z,6.78
2023-03-06T18:18:08.843Z,6.60
2023-03-06T18:20:41.171Z,6.82
2023-03-06T18:23:07.775Z,6.82
2023-03-06T18:25:34.624Z,6.68
2023-03-06T18:28:01.317Z,6.80
2023-03-06T18:30:27.998Z,6.88
2023-03-06T18:32:54.810Z,6.32
2023-03-06T18:35:21.722Z,6.53
2023-03-06T18:37:48.419Z,6.25
2023-03-06T18:40:15.142Z,6.55
2023-03-06T18:42:42.000Z,5.88
2023-03-06T18:45:09.462Z,6.80
2023-03-06T18:47:36.225Z,6.60
2023-03-06T18:50:03.241Z,6.70
2023-03-06T18:52:29.828Z,6.18
2023-03-06T18:54:56.391Z,6.78
2023-03-06T18:57:22.990Z,6.63
2023-03-06T18:59:49.559Z,6.45
2023-03-06T19:02:16.060Z,6.50
2023-03-06T19:04:42.905Z,6.50
2023-03-06T19:07:09.484Z,6.45
2023-03-06T19:09:36.001Z,6.43
2023-03-06T19:12:03.585Z,6.03
2023-03-06T19:14:30.670Z,6.20
2023-03-06T19:16:57.288Z,7.20
2023-03-06T19:19:26.965Z,6.53
2023-03-06T19:21:53.834Z,7.13
2023-03-06T19:24:20.412Z,6.63
2023-03-06T19:26:47.116Z,6.70
2023-03-06T19:29:13.774Z,7.07
2023-03-06T19:31:40.573Z,6.47
2023-03-06T19:34:07.216Z,7.55
2023-03-06T19:36:34.500Z,6.70
2023-03-06T19:39:03.676Z,7.57
2023-03-06T19:41:30.652Z,7.20
2023-03-06T19:43:59.639Z,6.05
2023-03-06T19:46:27.264Z,7.03
2023-03-06T19:48:58.964Z,6.68
2023-03-06T19:51:26.448Z,6.03
2023-03-06T19:53:53.257Z,6.53
2023-03-06T19:56:23.249Z,7.28
2023-03-06T19:58:49.844Z,7.60
2023-03-06T20:01:19.410Z,7.85
2023-03-06T20:03:46.263Z,6.55
2023-03-06T20:06:18.616Z,7.05
2023-03-06T20:08:46.556Z,7.07
2023-03-06T20:11:22.049Z,7.28
2023-03-06T20:13:48.981Z,7.47
2023-03-06T20:16:17.087Z,7.05
2023-03-06T20:18:43.884Z,6.38
2023-03-06T20:21:10.474Z,6.65
2023-03-06T20:23:37.120Z,6.97
2023-03-06T20:26:09.593Z,6.68
2023-03-06T20:28:37.717Z,6.38
2023-03-06T20:31:16.607Z,6.30
2023-03-06T20:33:44.404Z,6.45
2023-03-06T20:36:18.938Z,7.10
2023-03-06T20:38:45.800Z,8.63
2023-03-06T20:41:16.905Z,8.60
2023-03-06T20:43:43.947Z,9.52
2023-03-06T20:46:12.059Z,9.13
2023-03-06T20:48:39.065Z,9.27
2023-03-06T20:51:17.397Z,9.48
2023-03-06T20:53:44.095Z,7.70
2023-03-06T20:56:17.308Z,8.07
2023-03-06T20:58:44.563Z,7.40
2023-03-06T21:01:21.567Z,8.65
2023-03-06T21:03:49.314Z,8.43
2023-03-06T21:06:16.649Z,8.45
2023-03-06T21:08:43.473Z,9.20
2023-03-06T21:11:10.113Z,9.43
2023-03-06T21:13:36.627Z,9.23
2023-03-06T21:16:08.867Z,8.10
2023-03-06T21:18:35.805Z,8.15
2023-03-06T21:21:06.888Z,8.65
2023-03-06T21:23:33.606Z,8.88
2023-03-06T21:26:00.172Z,8.38
2023-03-06T21:28:27.459Z,9.15
2023-03-06T21:30:54.096Z,9.70
2023-03-06T21:33:20.925Z,8.13
2023-03-06T21:35:47.610Z,8.95
2023-03-06T21:38:14.502Z,9.10
2023-03-06T21:40:41.154Z,9.27
2023-03-06T21:43:09.083Z,9.00
2023-03-06T21:45:35.818Z,8.63
2023-03-06T21:48:02.569Z,8.75
2023-03-06T21:50:29.482Z,8.38
2023-03-06T21:52:56.635Z,8.40
2023-03-06T21:55:23.247Z,8.18
2023-03-06T21:57:53.914Z,8.25
2023-03-06T22:00:23.309Z,7.88
2023-03-06T22:02:50.485Z,8.15
2023-03-06T22:05:17.057Z,7.38
2023-03-06T22:07:43.661Z,8.10
2023-03-06T22:10:12.719Z,8.02
2023-03-06T22:12:39.669Z,8.52
2023-03-06T22:15:07.115Z,7.88
2023-03-06T22:17:33.735Z,8.23
2023-03-06T22:20:00.256Z,8.70
2023-03-06T22:22:26.995Z,8.05
2023-03-06T22:24:53.588Z,9.25
2023-03-06T22:27:20.085Z,9.45
2023-03-06T22:29:46.812Z,9.13
2023-03-06T22:32:13.574Z,10.18
2023-03-06T22:34:40.186Z,9.85
2023-03-06T22:37:06.766Z,10.30
2023-03-06T22:39:33.398Z,10.25
2023-03-06T22:41:59.886Z,10.43
2023-03-06T22:44:26.515Z,10.13
2023-03-06T22:46:53.651Z,9.90
2023-03-06T22:49:20.267Z,10.25
2023-03-06T22:51:46.885Z,9.10
2023-03-06T22:54:13.544Z,8.70
2023-03-06T22:56:40.034Z,8.88
2023-03-06T22:59:06.662Z,9.10
2023-03-06T23:01:34.972Z,9.18
2023-03-06T23:04:03.881Z,9.15
2023-03-06T23:06:36.156Z,8.50
2023-03-06T23:09:06.532Z,9.68
2023-03-06T23:11:34.320Z,8.88
2023-03-06T23:14:01.612Z,10.07
2023-03-06T23:16:28.251Z,8.93
2023-03-06T23:18:54.932Z,9.48
2023-03-06T23:21:22.735Z,10.23
2023-03-06T23:23:51.411Z,8.95
2023-03-06T23:26:19.926Z,10.48
2023-03-06T23:28:46.793Z,10.07
2023-03-06T23:31:15.801Z,9.65
2023-03-06T23:33:42.662Z,10.80
2023-03-06T23:36:12.060Z,9.65
2023-03-06T23:38:39.050Z,10.10
2023-03-06T23:41:08.359Z,9.88
2023-03-06T23:43:35.309Z,8.73
2023-03-06T23:46:02.239Z,9.70
2023-03-06T23:48:29.678Z,11.00
2023-03-06T23:50:56.807Z,10.90
2023-03-06T23:53:23.750Z,11.07
2023-03-06T23:55:51.053Z,10.20
2023-03-06T23:58:19.070Z,10.48
